createdAt,value
2023-07-11T00:00:32.524Z,92
2023-07-11T00:01:32.640Z,92
2023-07-11T00:02:32.560Z,92
2023-07-11T00:03:32.272Z,92
2023-07-11T00:04:32.523Z,92
2023-07-11T00:05:32.628Z,92
2023-07-11T00:06:32.600Z,92
2023-07-11T00:07:32.267Z,92
2023-07-11T00:08:32.549Z,92
2023-07-11T00:09:32.542Z,92
2023-07-11T00:10:32.526Z,92
2023-07-11T00:11:32.216Z,92
2023-07-11T00:12:32.512Z,92
2023-07-11T00:13:32.528Z,92
2023-07-11T00:14:32.495Z,92
2023-07-11T00:15:32.223Z,92
2023-07-11T00:16:32.555Z,93
2023-07-11T00:17:32.622Z,93
2023-07-11T00:18:32.524Z,93
2023-07-11T00:19:32.207Z,93
2023-07-11T00:20:32.523Z,93
2023-07-11T00:21:32.609Z,93
2023-07-11T00:22:32.539Z,93
2023-07-11T00:23:32.223Z,93
2023-07-11T00:24:32.519Z,93
2023-07-11T00:25:32.553Z,93
2023-07-11T00:26:32.489Z,93
2023-07-11T00:27:32.195Z,93
2023-07-11T00:28:32.534Z,93
2023-07-11T00:29:32.515Z,93
2023-07-11T00:30:32.547Z,93
2023-07-11T00:31:32.192Z,93
2023-07-11T00:32:32.531Z,93
2023-07-11T00:33:32.512Z,93
2023-07-11T00:34:32.541Z,94
2023-07-11T00:35:32.166Z,94
2023-07-11T00:36:32.521Z,94
2023-07-11T00:37:32.515Z,94
2023-07-11T00:38:32.520Z,94
2023-07-11T00:39:32.212Z,94
2023-07-11T00:40:32.505Z,94
2023-07-11T00:41:32.508Z,94
2023-07-11T00:42:32.584Z,94
2023-07-11T00:43:32.210Z,94
2023-07-11T00:44:32.508Z,94
2023-07-11T00:45:32.520Z,94
2023-07-11T00:46:32.515Z,94
2023-07-11T00:47:32.286Z,94
2023-07-11T00:48:32.572Z,94
2023-07-11T00:49:32.504Z,94
2023-07-11T00:50:32.532Z,94
2023-07-11T00:51:32.121Z,94
2023-07-11T00:52:32.535Z,94
2023-07-11T00:53:32.527Z,94
2023-07-11T00:54:32.523Z,94
2023-07-11T00:55:32.165Z,94
2023-07-11T00:56:32.540Z,94
2023-07-11T00:57:32.565Z,94
2023-07-11T00:58:32.538Z,94
2023-07-11T00:59:32.193Z,94
2023-07-11T01:00:32.534Z,94
2023-07-11T01:01:32.611Z,94
2023-07-11T01:02:32.597Z,94
2023-07-11T01:03:32.305Z,94
2023-07-11T01:04:32.551Z,94
2023-07-11T01:05:32.541Z,94
2023-07-11T01:06:32.492Z,94
2023-07-11T01:07:32.119Z,94
2023-07-11T01:08:32.494Z,94
2023-07-11T01:09:32.490Z,94
2023-07-11T01:10:32.508Z,94
2023-07-11T01:11:32.138Z,94
2023-07-11T01:12:32.502Z,94
2023-07-11T01:13:32.538Z,94
2023-07-11T01:14:32.582Z,94
2023-07-11T01:15:32.136Z,94
2023-07-11T01:16:32.606Z,94
2023-07-11T01:17:32.551Z,94
2023-07-11T01:18:32.535Z,94
2023-07-11T01:19:32.122Z,94
2023-07-11T01:20:32.525Z,94
2023-07-11T01:21:32.546Z,94
2023-07-11T01:22:32.476Z,94
2023-07-11T01:23:32.126Z,94
2023-07-11T01:24:32.504Z,94
2023-07-11T01:25:32.528Z,94
2023-07-11T01:26:32.531Z,94
2023-07-11T01:27:32.083Z,94
2023-07-11T01:28:32.485Z,94
2023-07-11T01:29:32.508Z,94
2023-07-11T01:30:32.603Z,94
2023-07-11T01:31:32.104Z,94
2023-07-11T01:32:32.523Z,94
2023-07-11T01:33:32.515Z,94
2023-07-11T01:34:32.587Z,94
2023-07-11T01:35:32.098Z,94
2023-07-11T01:36:32.487Z,94
2023-07-11T01:37:32.505Z,94
2023-07-11T01:38:32.501Z,94
2023-07-11T01:39:32.079Z,94
2023-07-11T01:40:32.699Z,94
2023-07-11T01:41:32.649Z,94
2023-07-11T01:42:32.641Z,94
2023-07-11T01:43:32.197Z,94
2023-07-11T01:44:32.628Z,94
2023-07-11T01:45:32.607Z,94
2023-07-11T01:46:32.690Z,94
2023-07-11T01:47:32.303Z,94
2023-07-11T01:48:32.615Z,94
2023-07-11T01:49:32.608Z,94
2023-07-11T01:50:32.604Z,94
2023-07-11T01:51:32.274Z,94
2023-07-11T01:52:32.650Z,94
2023-07-11T01:53:32.687Z,94
2023-07-11T01:54:32.607Z,94
2023-07-11T01:55:32.131Z,94
2023-07-11T01:56:32.667Z,94
2023-07-11T01:57:32.637Z,94
2023-07-11T01:58:32.598Z,94
2023-07-11T01:59:32.213Z,94
2023-07-11T02:00:32.621Z,94
2023-07-11T02:01:32.547Z,94
2023-07-11T02:02:32.561Z,94
2023-07-11T02:03:32.211Z,94
2023-07-11T02:04:32.484Z,94
2023-07-11T02:05:32.520Z,94
2023-07-11T02:06:32.492Z,94
2023-07-11T02:07:32.017Z,94
2023-07-11T02:08:32.545Z,94
2023-07-11T02:09:32.508Z,94
2023-07-11T02:10:32.538Z,94
2023-07-11T02:11:32.006Z,94
2023-07-11T02:12:32.517Z,94
2023-07-11T02:13:32.519Z,94
2023-07-11T02:14:32.476Z,94
2023-07-11T02:15:32.032Z,94
2023-07-11T02:16:32.618Z,94
2023-07-11T02:17:32.646Z,94
2023-07-11T02:18:32.523Z,94
2023-07-11T02:19:32.068Z,94
2023-07-11T02:20:32.494Z,94
2023-07-11T02:21:32.501Z,94
2023-07-11T02:22:32.556Z,94
2023-07-11T02:23:32.007Z,94
2023-07-11T02:24:32.502Z,94
2023-07-11T02:25:32.515Z,94
2023-07-11T02:26:32.496Z,94
2023-07-11T02:27:31.998Z,94
2023-07-11T02:28:32.506Z,94
2023-07-11T02:29:32.507Z,94
2023-07-11T02:30:32.539Z,94
2023-07-11T02:31:32.131Z,94
2023-07-11T02:32:32.537Z,94
2023-07-11T02:33:32.482Z,94
2023-07-11T02:34:32.490Z,94
2023-07-11T02:35:32.002Z,94
2023-07-11T02:36:32.519Z,94
2023-07-11T02:37:32.498Z,94
2023-07-11T02:38:32.636Z,94
2023-07-11T02:39:32.005Z,94
2023-07-11T02:40:32.542Z,94
2023-07-11T02:41:32.542Z,94
2023-07-11T02:42:32.514Z,94
2023-07-11T02:43:31.966Z,94
2023-07-11T02:44:32.623Z,94
2023-07-11T02:45:32.501Z,94
2023-07-11T02:46:32.592Z,94
2023-07-11T02:47:33.031Z,94
2023-07-11T02:48:32.499Z,94
2023-07-11T02:49:32.529Z,94
2023-07-11T02:50:32.522Z,94
2023-07-11T02:51:32.001Z,94
2023-07-11T02:52:32.516Z,94
2023-07-11T02:53:32.495Z,94
2023-07-11T02:54:32.505Z,94
2023-07-11T02:55:31.990Z,94
2023-07-11T02:56:32.470Z,94
2023-07-11T02:57:32.500Z,94
2023-07-11T02:58:32.513Z,94
2023-07-11T02:59:31.979Z,94
2023-07-11T03:00:32.531Z,94
2023-07-11T03:01:32.509Z,94
2023-07-11T03:02:32.538Z,94
2023-07-11T03:03:31.998Z,94
2023-07-11T03:04:32.465Z,93
2023-07-11T03:05:32.562Z,93
2023-07-11T03:06:32.537Z,93
2023-07-11T03:07:31.974Z,93
2023-07-11T03:08:32.502Z,93
2023-07-11T03:09:32.500Z,93
2023-07-11T03:10:32.548Z,93
2023-07-11T03:11:32.106Z,93
2023-07-11T03:12:32.800Z,93
2023-07-11T03:13:32.665Z,93
2023-07-11T03:14:32.520Z,93
2023-07-11T03:15:32.053Z,93
2023-07-11T03:16:32.723Z,93
2023-07-11T03:17:32.826Z,93
2023-07-11T03:18:32.629Z,93
2023-07-11T03:19:32.098Z,93
2023-07-11T03:20:32.488Z,93
2023-07-11T03:21:32.609Z,93
2023-07-11T03:22:32.671Z,93
2023-07-11T03:23:32.078Z,93
2023-07-11T03:24:32.629Z,93
2023-07-11T03:25:32.649Z,93
2023-07-11T03:26:32.510Z,93
2023-07-11T03:27:32.090Z,93
2023-07-11T03:28:32.512Z,93
2023-07-11T03:29:32.496Z,93
2023-07-11T03:30:32.492Z,92
2023-07-11T03:31:31.898Z,92
2023-07-11T03:32:32.540Z,92
2023-07-11T03:33:32.655Z,92
2023-07-11T03:34:32.657Z,92
2023-07-11T03:35:32.059Z,92
2023-07-11T03:36:32.624Z,92
2023-07-11T03:37:32.503Z,92
2023-07-11T03:38:32.647Z,92
2023-07-11T03:39:31.886Z,92
2023-07-11T03:40:32.604Z,92
2023-07-11T03:41:32.585Z,92
2023-07-11T03:42:32.605Z,92
2023-07-11T03:43:32.005Z,92
2023-07-11T03:44:32.636Z,92
2023-07-11T03:45:32.590Z,92
2023-07-11T03:46:32.562Z,92
2023-07-11T03:47:32.028Z,91
2023-07-11T03:48:32.509Z,91
2023-07-11T03:49:32.512Z,91
2023-07-11T03:50:32.497Z,91
2023-07-11T03:51:32.044Z,91
2023-07-11T03:52:32.546Z,91
2023-07-11T03:53:32.633Z,91
2023-07-11T03:54:32.490Z,91
2023-07-11T03:55:32.032Z,91
2023-07-11T03:56:32.507Z,91
2023-07-11T03:57:32.501Z,91
2023-07-11T03:58:32.529Z,90
2023-07-11T03:59:31.887Z,90
2023-07-11T04:00:32.562Z,90
2023-07-11T04:01:32.529Z,90
2023-07-11T04:02:32.509Z,90
2023-07-11T04:03:32.000Z,90
2023-07-11T04:04:32.513Z,90
2023-07-11T04:05:32.495Z,90
2023-07-11T04:06:32.473Z,90
2023-07-11T04:07:31.871Z,90
2023-07-11T04:08:32.501Z,90
2023-07-11T04:09:32.483Z,90
2023-07-11T04:10:32.492Z,89
2023-07-11T04:11:31.894Z,89
2023-07-11T04:12:32.514Z,89
2023-07-11T04:13:32.514Z,89
2023-07-11T04:14:32.507Z,89
2023-07-11T04:15:31.834Z,89
2023-07-11T04:16:32.488Z,89
2023-07-11T04:17:32.537Z,89
2023-07-11T04:18:32.505Z,89
2023-07-11T04:19:31.822Z,89
2023-07-11T04:20:32.496Z,89
2023-07-11T04:21:32.498Z,89
2023-07-11T04:22:32.496Z,89
2023-07-11T04:23:31.870Z,88
2023-07-11T04:24:32.474Z,88
2023-07-11T04:25:32.484Z,88
2023-07-11T04:26:32.474Z,88
2023-07-11T04:27:31.883Z,88
2023-07-11T04:28:32.480Z,88
2023-07-11T04:29:32.469Z,88
2023-07-11T04:30:32.698Z,88
2023-07-11T04:31:31.855Z,88
2023-07-11T04:32:32.534Z,88
2023-07-11T04:33:32.484Z,87
2023-07-11T04:34:32.469Z,87
2023-07-11T04:35:31.769Z,87
2023-07-11T04:36:32.532Z,87
2023-07-11T04:37:32.480Z,87
2023-07-11T04:38:32.612Z,87
2023-07-11T04:39:31.839Z,87
2023-07-11T04:40:32.478Z,87
2023-07-11T04:41:32.507Z,87
2023-07-11T04:42:32.494Z,87
2023-07-11T04:43:31.837Z,86
2023-07-11T04:44:32.484Z,86
2023-07-11T04:45:32.485Z,86
2023-07-11T04:46:32.492Z,86
2023-07-11T04:47:31.831Z,86
2023-07-11T04:48:32.480Z,86
2023-07-11T04:49:32.494Z,86
2023-07-11T04:50:32.485Z,86
2023-07-11T04:51:31.840Z,86
2023-07-11T04:52:32.543Z,86
2023-07-11T04:53:32.455Z,86
2023-07-11T04:54:32.527Z,86
2023-07-11T04:55:31.803Z,86
2023-07-11T04:56:32.471Z,86
2023-07-11T04:57:32.676Z,86
2023-07-11T04:58:32.478Z,85
2023-07-11T04:59:31.799Z,85
2023-07-11T05:00:32.455Z,85
2023-07-11T05:01:32.534Z,85
2023-07-11T05:02:32.504Z,85
2023-07-11T05:03:31.810Z,85
2023-07-11T05:04:32.733Z,85
2023-07-11T05:05:32.452Z,84
2023-07-11T05:06:32.488Z,84
2023-07-11T05:07:32.513Z,84
2023-07-11T05:08:32.485Z,84
2023-07-11T05:09:32.569Z,84
2023-07-11T05:10:32.554Z,84
2023-07-11T05:11:31.798Z,84
2023-07-11T05:12:32.524Z,84
2023-07-11T05:13:32.500Z,84
2023-07-11T05:14:32.511Z,84
2023-07-11T05:15:32.745Z,84
2023-07-11T05:16:32.522Z,83
2023-07-11T05:17:32.545Z,83
2023-07-11T05:18:32.523Z,83
2023-07-11T05:19:32.602Z,82
2023-07-11T05:20:32.480Z,82
2023-07-11T05:21:32.525Z,81
2023-07-11T05:22:32.467Z,81
2023-07-11T05:23:32.496Z,79
2023-07-11T05:24:32.450Z,79
2023-07-11T05:25:32.478Z,80
2023-07-11T05:26:32.501Z,80
2023-07-11T05:27:32.541Z,79
2023-07-11T05:28:32.487Z,79
2023-07-11T05:29:33.354Z,79
2023-07-11T05:30:43.734Z,79
2023-07-11T05:31:47.806Z,78
2023-07-11T05:32:52.609Z,78
2023-07-11T05:33:55.756Z,78
2023-07-11T05:34:59.743Z,77
2023-07-11T05:36:04.170Z,78
2023-07-11T05:37:07.779Z,78
2023-07-11T05:38:11.734Z,78
2023-07-11T05:39:15.799Z,78
2023-07-11T05:40:19.703Z,76
2023-07-11T05:41:23.747Z,77
2023-07-11T05:42:27.753Z,76
2023-07-11T05:43:31.747Z,76
2023-07-11T05:44:32.528Z,76
2023-07-11T05:45:32.471Z,76
2023-07-11T05:46:32.670Z,76
2023-07-11T05:47:32.526Z,75
2023-07-11T05:48:32.521Z,74
2023-07-11T05:49:32.484Z,74
2023-07-11T05:50:32.456Z,74
2023-07-11T05:51:32.463Z,73
2023-07-11T05:52:32.480Z,73
2023-07-11T05:53:32.483Z,73
2023-07-11T05:54:32.482Z,72
2023-07-11T05:55:32.480Z,73
2023-07-11T05:56:32.542Z,74
2023-07-11T05:57:32.523Z,74
2023-07-11T05:58:32.483Z,74
2023-07-11T05:59:32.489Z,75
2023-07-11T06:00:32.680Z,75
2023-07-11T06:01:32.508Z,75
2023-07-11T06:02:32.499Z,74
2023-07-11T06:03:32.623Z,73
2023-07-11T06:04:32.535Z,73
2023-07-11T06:05:32.482Z,72
2023-07-11T06:06:32.489Z,73
2023-07-11T06:07:32.526Z,73
2023-07-11T06:08:32.474Z,73
2023-07-11T06:09:33.899Z,73
2023-07-11T06:10:32.474Z,73
2023-07-11T06:11:32.488Z,73
2023-07-11T06:12:32.485Z,73
2023-07-11T06:13:32.524Z,72
2023-07-11T06:14:32.489Z,72
2023-07-11T06:15:32.467Z,72
2023-07-11T06:16:32.568Z,71
2023-07-11T06:17:32.501Z,71
2023-07-11T06:18:32.464Z,71
2023-07-11T06:19:32.508Z,70
2023-07-11T06:20:32.496Z,68
2023-07-11T06:21:32.467Z,68
2023-07-11T06:22:32.467Z,68
2023-07-11T06:23:32.499Z,67
2023-07-11T06:24:32.477Z,67
2023-07-11T06:25:32.524Z,68
2023-07-11T06:26:32.483Z,68
2023-07-11T06:27:32.520Z,69
2023-07-11T06:28:33.072Z,68
2023-07-11T06:29:32.591Z,68
2023-07-11T06:30:32.496Z,68
2023-07-11T06:31:32.503Z,68
2023-07-11T06:32:32.502Z,68
2023-07-11T06:33:32.522Z,67
2023-07-11T06:34:32.476Z,65
2023-07-11T06:35:32.512Z,66
2023-07-11T06:36:32.500Z,64
2023-07-11T06:37:32.481Z,65
2023-07-11T06:38:32.500Z,64
2023-07-11T06:39:32.472Z,65
2023-07-11T06:40:32.493Z,65
2023-07-11T06:41:32.507Z,65
2023-07-11T06:42:32.535Z,65
2023-07-11T06:43:32.508Z,65
2023-07-11T06:44:32.526Z,66
2023-07-11T06:45:32.495Z,67
2023-07-11T06:46:32.521Z,67
2023-07-11T06:47:32.487Z,68
2023-07-11T06:48:32.509Z,67
2023-07-11T06:49:32.461Z,66
2023-07-11T06:50:32.493Z,65
2023-07-11T06:51:32.466Z,65
2023-07-11T06:52:32.490Z,66
2023-07-11T06:53:32.462Z,65
2023-07-11T06:54:32.477Z,63
2023-07-11T06:55:32.467Z,62
2023-07-11T06:56:32.492Z,63
2023-07-11T06:57:32.484Z,63
2023-07-11T06:58:32.482Z,62
2023-07-11T06:59:32.479Z,62
2023-07-11T07:00:32.835Z,63
2023-07-11T07:01:37.340Z,62
2023-07-11T07:02:32.779Z,62
2023-07-11T07:03:32.673Z,61
2023-07-11T07:04:32.461Z,61
2023-07-11T07:05:32.461Z,60
2023-07-11T07:06:32.460Z,60
2023-07-11T07:07:32.458Z,60
2023-07-11T07:08:32.537Z,60
2023-07-11T07:09:32.499Z,60
2023-07-11T07:10:32.500Z,59
2023-07-11T07:11:32.566Z,60
2023-07-11T07:12:32.493Z,59
2023-07-11T07:13:32.557Z,58
2023-07-11T07:14:32.496Z,59
2023-07-11T07:15:32.494Z,59
2023-07-11T07:16:32.511Z,58
2023-07-11T07:17:32.516Z,58
2023-07-11T07:18:32.470Z,59
2023-07-11T07:19:32.506Z,59
2023-07-11T07:20:36.966Z,60
2023-07-11T07:21:32.444Z,60
2023-07-11T07:22:32.447Z,57
2023-07-11T07:23:32.477Z,58
2023-07-11T07:24:32.499Z,59
2023-07-11T07:25:32.564Z,58
2023-07-11T07:26:32.515Z,57
2023-07-11T07:27:32.467Z,56
2023-07-11T07:28:32.494Z,57
2023-07-11T07:29:32.471Z,57
2023-07-11T07:30:32.500Z,56
2023-07-11T07:31:32.533Z,54
2023-07-11T07:32:32.505Z,55
2023-07-11T07:33:32.515Z,55
2023-07-11T07:34:32.457Z,55
2023-07-11T07:35:32.468Z,55
2023-07-11T07:36:32.528Z,55
2023-07-11T07:37:32.473Z,54
2023-07-11T07:38:32.486Z,53
2023-07-11T07:39:32.587Z,53
2023-07-11T07:40:32.526Z,53
2023-07-11T07:41:32.469Z,54
2023-07-11T07:42:32.464Z,53
2023-07-11T07:43:32.498Z,54
2023-07-11T07:44:32.481Z,54
2023-07-11T07:45:32.479Z,54
2023-07-11T07:46:32.570Z,53
2023-07-11T07:47:32.527Z,50
2023-07-11T07:48:32.472Z,52
2023-07-11T07:49:41.908Z,51
2023-07-11T07:50:32.494Z,50
2023-07-11T07:51:32.472Z,52
2023-07-11T07:52:32.498Z,51
2023-07-11T07:53:32.469Z,52
2023-07-11T07:54:32.489Z,52
2023-07-11T07:55:32.483Z,52
2023-07-11T07:56:32.476Z,53
2023-07-11T07:57:32.487Z,53
2023-07-11T07:58:42.612Z,52
2023-07-11T07:59:32.472Z,52
2023-07-11T08:00:32.482Z,51
2023-07-11T08:01:32.481Z,51
2023-07-11T08:02:32.498Z,51
2023-07-11T08:03:32.531Z,50
2023-07-11T08:04:32.576Z,51
2023-07-11T08:05:32.487Z,52
2023-07-11T08:06:32.468Z,52
2023-07-11T08:07:32.574Z,51
2023-07-11T08:08:32.497Z,48
2023-07-11T08:09:32.475Z,50
2023-07-11T08:10:32.490Z,48
2023-07-11T08:11:32.477Z,49
2023-07-11T08:12:32.516Z,49
2023-07-11T08:13:38.585Z,50
2023-07-11T08:14:32.556Z,51
2023-07-11T08:15:32.452Z,51
2023-07-11T08:16:34.351Z,52
2023-07-11T08:17:32.507Z,51
2023-07-11T08:18:32.472Z,50
2023-07-11T08:19:32.455Z,51
2023-07-11T08:20:32.447Z,51
2023-07-11T08:21:32.521Z,51
2023-07-11T08:22:32.467Z,50
2023-07-11T08:23:32.521Z,50
2023-07-11T08:24:32.461Z,51
2023-07-11T08:25:32.480Z,49
2023-07-11T08:26:32.466Z,48
2023-07-11T08:27:32.454Z,49
2023-07-11T08:28:32.465Z,49
2023-07-11T08:29:32.478Z,48
2023-07-11T08:30:32.522Z,49
2023-07-11T08:31:32.484Z,49
2023-07-11T08:32:32.498Z,48
2023-07-11T08:33:32.465Z,49
2023-07-11T08:34:32.538Z,50
2023-07-11T08:35:32.469Z,50
2023-07-11T08:36:32.493Z,49
2023-07-11T08:37:32.464Z,50
2023-07-11T08:38:32.452Z,50
2023-07-11T08:39:32.465Z,49
2023-07-11T08:40:47.094Z,49
2023-07-11T08:41:32.472Z,49
2023-07-11T08:42:32.487Z,50
2023-07-11T08:43:32.464Z,49
2023-07-11T08:44:32.483Z,50
2023-07-11T08:45:32.472Z,49
2023-07-11T08:46:32.490Z,50
2023-07-11T08:47:32.775Z,50
2023-07-11T08:48:32.471Z,49
2023-07-11T08:49:32.459Z,49
2023-07-11T08:50:32.492Z,50
2023-07-11T08:51:32.461Z,50
2023-07-11T08:52:32.458Z,51
2023-07-11T08:53:32.474Z,51
2023-07-11T08:54:32.470Z,50
2023-07-11T08:55:32.498Z,50
2023-07-11T08:56:32.445Z,51
2023-07-11T08:57:32.462Z,51
2023-07-11T08:58:32.461Z,51
2023-07-11T08:59:32.477Z,52
2023-07-11T09:00:32.484Z,51
2023-07-11T09:01:32.529Z,52
2023-07-11T09:02:32.485Z,52
2023-07-11T09:03:32.560Z,51
2023-07-11T09:04:32.470Z,49
2023-07-11T09:05:32.458Z,50
2023-07-11T09:06:32.480Z,50
2023-07-11T09:07:32.542Z,51
2023-07-11T09:08:32.446Z,51
2023-07-11T09:09:32.460Z,49
2023-07-11T09:10:47.095Z,49
2023-07-11T09:11:32.547Z,50
2023-07-11T09:12:32.462Z,50
2023-07-11T09:13:32.514Z,49
2023-07-11T09:14:32.437Z,49
2023-07-11T09:15:32.431Z,48
2023-07-11T09:16:32.494Z,48
2023-07-11T09:17:32.481Z,47
2023-07-11T09:18:33.621Z,47
2023-07-11T09:19:32.482Z,47
2023-07-11T09:20:32.486Z,47
2023-07-11T09:21:32.510Z,47
2023-07-11T09:22:32.475Z,48
2023-07-11T09:23:38.955Z,49
2023-07-11T09:24:32.864Z,49
2023-07-11T09:25:32.451Z,50
2023-07-11T09:26:32.472Z,49
2023-07-11T09:27:32.457Z,49
2023-07-11T09:28:32.491Z,49
2023-07-11T09:29:32.516Z,50
2023-07-11T09:30:32.442Z,49
2023-07-11T09:31:32.616Z,49
2023-07-11T09:32:32.607Z,47
2023-07-11T09:33:32.497Z,48
2023-07-11T09:34:32.449Z,46
2023-07-11T09:35:32.455Z,46
2023-07-11T09:36:32.481Z,45
2023-07-11T09:37:32.569Z,46
2023-07-11T09:38:32.443Z,47
2023-07-11T09:39:32.466Z,47
2023-07-11T09:40:32.464Z,47
2023-07-11T09:41:45.013Z,47
2023-07-11T09:42:32.450Z,46
2023-07-11T09:43:32.451Z,46
2023-07-11T09:44:32.463Z,45
2023-07-11T09:45:32.483Z,44
2023-07-11T09:46:32.651Z,42
2023-07-11T09:47:32.566Z,43
2023-07-11T09:48:32.436Z,44
2023-07-11T09:49:32.476Z,44
2023-07-11T09:50:39.877Z,45
2023-07-11T09:51:32.469Z,42
2023-07-11T09:52:32.460Z,42
2023-07-11T09:53:32.533Z,43
2023-07-11T09:54:32.451Z,44
2023-07-11T09:55:32.462Z,44
2023-07-11T09:56:32.474Z,43
2023-07-11T09:57:32.470Z,43
2023-07-11T09:58:32.486Z,42
2023-07-11T09:59:32.481Z,43
2023-07-11T10:00:32.446Z,42
2023-07-11T10:01:32.466Z,43
2023-07-11T10:02:32.495Z,43
2023-07-11T10:03:32.459Z,44
2023-07-11T10:04:32.542Z,45
2023-07-11T10:05:32.464Z,43
2023-07-11T10:07:32.459Z,44
2023-07-11T10:08:32.456Z,44
2023-07-11T10:09:32.487Z,44
2023-07-11T10:10:32.470Z,41
2023-07-11T10:11:32.464Z,42
2023-07-11T10:12:32.493Z,42
2023-07-11T10:13:38.395Z,42
2023-07-11T10:14:32.763Z,43
2023-07-11T10:15:32.470Z,43
2023-07-11T10:16:32.458Z,43
2023-07-11T10:17:32.575Z,43
2023-07-11T10:18:32.512Z,43
2023-07-11T10:19:32.477Z,43
2023-07-11T10:20:32.473Z,43
2023-07-11T10:21:40.368Z,43
2023-07-11T10:22:32.950Z,43
2023-07-11T10:23:32.486Z,43
2023-07-11T10:24:32.436Z,43
2023-07-11T10:25:32.467Z,41
2023-07-11T10:26:32.463Z,42
2023-07-11T10:27:32.473Z,42
2023-07-11T10:28:32.471Z,42
2023-07-11T10:29:32.449Z,42
2023-07-11T10:30:32.437Z,41
2023-07-11T10:31:32.485Z,42
2023-07-11T10:32:32.472Z,42
2023-07-11T10:33:40.433Z,42
2023-07-11T10:34:32.499Z,43
2023-07-11T10:35:32.502Z,43
2023-07-11T10:36:32.468Z,43
2023-07-11T10:37:32.445Z,44
2023-07-11T10:38:32.463Z,43
2023-07-11T10:39:32.490Z,43
2023-07-11T10:40:32.484Z,42
2023-07-11T10:41:32.440Z,42
2023-07-11T10:42:32.433Z,41
2023-07-11T10:43:32.437Z,43
2023-07-11T10:44:32.459Z,43
2023-07-11T10:45:32.438Z,43
2023-07-11T10:46:32.531Z,42
2023-07-11T10:47:32.506Z,42
2023-07-11T10:48:32.429Z,42
2023-07-11T10:49:32.441Z,42
2023-07-11T10:50:32.443Z,41
2023-07-11T10:51:32.505Z,41
2023-07-11T10:52:32.459Z,41
2023-07-11T10:53:32.461Z,42
2023-07-11T10:54:32.457Z,43
2023-07-11T10:55:32.450Z,43
2023-07-11T10:56:32.440Z,44
2023-07-11T10:57:42.707Z,44
2023-07-11T10:58:32.482Z,44
2023-07-11T10:59:32.451Z,44
2023-07-11T11:00:32.485Z,44
2023-07-11T11:01:32.464Z,44
2023-07-11T11:02:32.503Z,43
2023-07-11T11:03:32.651Z,42
2023-07-11T11:04:32.470Z,43
2023-07-11T11:05:32.479Z,42
2023-07-11T11:06:32.460Z,42
2023-07-11T11:07:32.464Z,43
2023-07-11T11:08:32.474Z,43
2023-07-11T11:09:32.408Z,43
2023-07-11T11:10:32.493Z,41
2023-07-11T11:11:32.470Z,42
2023-07-11T11:12:32.474Z,42
2023-07-11T11:13:32.504Z,42
2023-07-11T11:14:32.479Z,41
2023-07-11T11:15:32.460Z,42
2023-07-11T11:16:32.443Z,42
2023-07-11T11:17:32.457Z,43
2023-07-11T11:18:32.491Z,42
2023-07-11T11:19:32.441Z,41
2023-07-11T11:20:32.438Z,40
2023-07-11T11:21:47.791Z,41
2023-07-11T11:22:32.445Z,40
2023-07-11T11:23:32.440Z,41
2023-07-11T11:24:32.434Z,40
2023-07-11T11:25:32.449Z,41
2023-07-11T11:26:32.505Z,41
2023-07-11T11:27:32.420Z,41
2023-07-11T11:28:32.530Z,41
2023-07-11T11:29:32.476Z,41
2023-07-11T11:30:32.547Z,42
2023-07-11T11:31:32.430Z,41
2023-07-11T11:32:32.549Z,41
2023-07-11T11:33:32.495Z,42
2023-07-11T11:34:32.464Z,42
2023-07-11T11:35:32.461Z,42
2023-07-11T11:36:32.554Z,42
2023-07-11T11:37:32.437Z,40
2023-07-11T11:38:34.811Z,41
2023-07-11T11:39:32.452Z,41
2023-07-11T11:40:32.456Z,39
2023-07-11T11:41:32.461Z,40
2023-07-11T11:42:32.428Z,41
2023-07-11T11:44:31.995Z,41
2023-07-11T11:46:26.792Z,41
2023-07-11T11:46:34.692Z,41
2023-07-11T11:48:49.977Z,43
2023-07-11T11:51:32.479Z,41
2023-07-11T11:52:32.574Z,42
2023-07-11T11:53:32.427Z,41
2023-07-11T11:54:32.427Z,42
2023-07-11T11:55:32.480Z,41
2023-07-11T11:56:32.664Z,41
2023-07-11T11:57:32.497Z,40
2023-07-11T11:58:32.463Z,40
2023-07-11T11:59:32.461Z,41
2023-07-11T12:00:32.452Z,41
2023-07-11T12:01:32.545Z,42
2023-07-11T12:02:32.484Z,42
2023-07-11T12:03:32.495Z,40
2023-07-11T12:04:32.541Z,41
2023-07-11T12:05:32.447Z,40
2023-07-11T12:06:32.472Z,39
2023-07-11T12:07:32.458Z,39
2023-07-11T12:08:32.441Z,39
2023-07-11T12:09:32.476Z,40
2023-07-11T12:10:32.433Z,40
2023-07-11T12:11:32.455Z,40
2023-07-11T12:12:32.451Z,40
2023-07-11T12:13:32.495Z,39
2023-07-11T12:14:32.427Z,39
2023-07-11T12:15:32.456Z,38
2023-07-11T12:16:42.165Z,38
2023-07-11T12:17:32.575Z,39
2023-07-11T12:18:32.437Z,40
2023-07-11T12:19:32.423Z,40
2023-07-11T12:20:32.872Z,41
2023-07-11T12:21:32.541Z,42
2023-07-11T12:22:32.427Z,41
2023-07-11T12:23:48.324Z,41
2023-07-11T12:25:32.464Z,37
2023-07-11T12:26:32.474Z,38
2023-07-11T12:27:32.430Z,38
2023-07-11T12:28:32.476Z,38
2023-07-11T12:29:32.436Z,40
2023-07-11T12:30:32.439Z,40
2023-07-11T12:31:33.411Z,39
2023-07-11T12:32:32.581Z,40
2023-07-11T12:33:32.453Z,40
2023-07-11T12:34:32.527Z,37
2023-07-11T12:35:32.439Z,37
2023-07-11T12:36:32.475Z,38
2023-07-11T12:37:33.402Z,38
2023-07-11T12:38:32.429Z,39
2023-07-11T12:39:32.431Z,39
2023-07-11T12:40:32.430Z,38
2023-07-11T12:41:43.436Z,38
2023-07-11T12:42:32.445Z,38
2023-07-11T12:43:32.438Z,39
2023-07-11T12:44:32.422Z,38
2023-07-11T12:45:32.451Z,38
2023-07-11T12:46:32.476Z,37
2023-07-11T12:47:32.470Z,38
2023-07-11T12:48:32.535Z,39
2023-07-11T12:49:32.453Z,38
2023-07-11T12:50:32.417Z,38
2023-07-11T12:51:32.454Z,39
2023-07-11T12:52:32.493Z,39
2023-07-11T12:53:33.929Z,39
2023-07-11T12:54:32.477Z,39
2023-07-11T12:55:32.526Z,39
2023-07-11T12:56:32.427Z,39
2023-07-11T12:57:32.453Z,39
2023-07-11T12:58:32.751Z,40
2023-07-11T12:59:32.449Z,40
2023-07-11T13:00:32.440Z,39
2023-07-11T13:01:32.486Z,37
2023-07-11T13:02:32.506Z,38
2023-07-11T13:03:32.508Z,37
2023-07-11T13:04:32.474Z,37
2023-07-11T13:05:32.447Z,37
2023-07-11T13:06:32.447Z,37
2023-07-11T13:07:32.469Z,37
2023-07-11T13:08:32.442Z,38
2023-07-11T13:09:32.434Z,39
2023-07-11T13:10:32.433Z,37
2023-07-11T13:11:32.447Z,37
2023-07-11T13:12:32.434Z,38
2023-07-11T13:13:32.436Z,38
2023-07-11T13:14:32.422Z,38
2023-07-11T13:15:32.439Z,38
2023-07-11T13:16:32.531Z,38
2023-07-11T13:17:32.444Z,39
2023-07-11T13:18:32.430Z,40
2023-07-11T13:19:32.469Z,39
2023-07-11T13:20:32.403Z,39
2023-07-11T13:21:32.432Z,40
2023-07-11T13:22:32.456Z,40
2023-07-11T13:23:32.440Z,40
2023-07-11T13:24:32.540Z,40
2023-07-11T13:25:32.491Z,40
2023-07-11T13:26:32.465Z,39
2023-07-11T13:27:32.453Z,39
2023-07-11T13:28:32.454Z,39
2023-07-11T13:29:32.475Z,39
2023-07-11T13:30:32.456Z,39
2023-07-11T13:31:32.483Z,40
2023-07-11T13:32:32.486Z,40
2023-07-11T13:33:42.973Z,41
2023-07-11T13:34:32.411Z,42
2023-07-11T13:36:36.208Z,40
2023-07-11T13:37:32.447Z,41
2023-07-11T13:38:32.440Z,41
2023-07-11T13:39:32.417Z,41
2023-07-11T13:40:32.465Z,41
2023-07-11T13:41:32.427Z,42
2023-07-11T13:42:32.438Z,41
2023-07-11T13:43:32.455Z,40
2023-07-11T13:44:32.436Z,41
2023-07-11T13:45:32.472Z,41
2023-07-11T13:46:32.412Z,42
2023-07-11T13:47:32.502Z,42
2023-07-11T13:48:32.548Z,43
2023-07-11T13:49:32.439Z,43
2023-07-11T13:50:32.452Z,43
2023-07-11T13:51:32.435Z,43
2023-07-11T13:52:32.446Z,42
2023-07-11T13:53:32.432Z,42
2023-07-11T13:54:32.417Z,42
2023-07-11T13:55:32.435Z,42
2023-07-11T13:56:32.421Z,42
2023-07-11T13:57:32.435Z,41
2023-07-11T13:58:32.403Z,42
2023-07-11T14:00:32.474Z,43
2023-07-11T14:01:33.134Z,43
2023-07-11T14:02:32.636Z,44
2023-07-11T14:03:32.846Z,44
2023-07-11T14:04:32.522Z,44
2023-07-11T14:05:32.427Z,44
2023-07-11T14:06:32.462Z,43
2023-07-11T14:07:32.422Z,44
2023-07-11T14:08:32.474Z,44
2023-07-11T14:09:32.482Z,44
2023-07-11T14:10:32.428Z,44
2023-07-11T14:11:32.455Z,45
2023-07-11T14:12:32.465Z,45
2023-07-11T14:13:32.470Z,46
2023-07-11T14:14:40.812Z,46
2023-07-11T14:15:32.419Z,46
2023-07-11T14:16:32.436Z,45
2023-07-11T14:17:32.492Z,46
2023-07-11T14:18:32.438Z,45
2023-07-11T14:19:32.506Z,44
2023-07-11T14:20:32.423Z,44
2023-07-11T14:21:32.436Z,44
2023-07-11T14:22:32.419Z,44
2023-07-11T14:23:32.502Z,45
2023-07-11T14:24:32.435Z,45